sensor_id;sensor_type;location;lat;lon;timestamp;P1;durP1;ratioP1;P2;durP2;ratioP2
9160;SDS011;4615;51.340;8.288;2024-01-10T00:00:22;7.80;;;6.15;;
9160;SDS011;4615;51.340;8.288;2024-01-10T00:02:49;8.15;;;6.45;;
9160;SDS011;4615;51.340;8.288;2024-01-10T00:05:15;8.75;;;6.55;;
9160;SDS011;4615;51.340;8.288;2024-01-10T00:07:41;8.00;;;5.95;;
9160;SDS011;4615;51.340;8.288;2024-01-10T00:10:08;8.63;;;6.57;;
9160;SDS011;4615;51.340;8.288;2024-01-10T00:12:34;8.52;;;6.38;;
9160;SDS011;4615;51.340;8.288;2024-01-10T00:15:03;8.32;;;6.35;;
9160;SDS011;4615;51.340;8.288;2024-01-10T00:17:30;8.02;;;6.38;;
9160;SDS011;4615;51.340;8.288;2024-01-10T00:19:57;7.75;;;6.10;;
9160;SDS011;4615;51.340;8.288;2024-01-10T00:22:23;7.97;;;6.63;;
9160;SDS011;4615;51.340;8.288;2024-01-10T00:24:50;8.23;;;6.53;;
9160;SDS011;4615;51.340;8.288;2024-01-10T00:27:16;8.32;;;6.53;;
9160;SDS011;4615;51.340;8.288;2024-01-10T00:29:42;9.15;;;6.70;;
9160;SDS011;4615;51.340;8.288;2024-01-10T00:32:10;7.15;;;6.10;;
9160;SDS011;4615;51.340;8.288;2024-01-10T00:34:36;8.25;;;6.20;;
9160;SDS011;4615;51.340;8.288;2024-01-10T00:37:03;7.53;;;5.80;;
9160;SDS011;4615;51.340;8.288;2024-01-10T00:39:29;7.67;;;6.20;;
9160;SDS011;4615;51.340;8.288;2024-01-10T00:41:55;9.55;;;6.25;;
9160;SDS011;4615;51.340;8.288;2024-01-10T00:44:22;6.85;;;5.60;;
9160;SDS011;4615;51.340;8.288;2024-01-10T00:46:49;6.90;;;5.55;;
9160;SDS011;4615;51.340;8.288;2024-01-10T00:49:16;7.72;;;5.93;;
9160;SDS011;4615;51.340;8.288;2024-01-10T00:51:43;7.75;;;5.70;;
9160;SDS011;4615;51.340;8.288;2024-01-10T00:54:09;7.97;;;5.72;;
9160;SDS011;4615;51.340;8.288;2024-01-10T00:56:35;6.25;;;5.20;;
9160;SDS011;4615;51.340;8.288;2024-01-10T00:59:02;6.53;;;5.40;;
9160;SDS011;4615;51.340;8.288;2024-01-10T01:01:28;6.87;;;5.60;;
9160;SDS011;4615;51.340;8.288;2024-01-10T01:03:55;11.85;;;5.88;;
9160;SDS011;4615;51.340;8.288;2024-01-10T01:06:22;6.82;;;5.50;;
9160;SDS011;4615;51.340;8.288;2024-01-10T01:08:49;7.28;;;5.70;;
9160;SDS011;4615;51.340;8.288;2024-01-10T01:11:15;7.57;;;5.50;;
9160;SDS011;4615;51.340;8.288;2024-01-10T01:13:41;7.65;;;5.70;;
9160;SDS011;4615;51.340;8.288;2024-01-10T01:16:08;7.15;;;5.50;;
9160;SDS011;4615;51.340;8.288;2024-01-10T01:18:34;8.13;;;5.70;;
9160;SDS011;4615;51.340;8.288;2024-01-10T01:21:00;6.93;;;5.45;;
9160;SDS011;4615;51.340;8.288;2024-01-10T01:23:28;7.47;;;5.63;;
9160;SDS011;4615;51.340;8.288;2024-01-10T01:25:55;8.25;;;6.35;;
9160;SDS011;4615;51.340;8.288;2024-01-10T01:28:21;7.57;;;6.23;;
9160;SDS011;4615;51.340;8.288;2024-01-10T01:30:47;8.80;;;6.60;;
9160;SDS011;4615;51.340;8.288;2024-01-10T01:33:14;11.43;;;8.05;;
9160;SDS011;4615;51.340;8.288;2024-01-10T01:35:40;11.00;;;8.32;;
9160;SDS011;4615;51.340;8.288;2024-01-10T01:38:06;10.77;;;7.90;;
9160;SDS011;4615;51.340;8.288;2024-01-10T01:40:34;11.90;;;8.30;;
9160;SDS011;4615;51.340;8.288;2024-01-10T01:45:42;9.77;;;7.30;;
9160;SDS011;4615;51.340;8.288;2024-01-10T01:48:08;10.93;;;7.40;;
9160;SDS011;4615;51.340;8.288;2024-01-10T01:50:35;10.75;;;7.90;;
9160;SDS011;4615;51.340;8.288;2024-01-10T01:53:02;11.65;;;7.90;;
9160;SDS011;4615;51.340;8.288;2024-01-10T01:55:29;12.00;;;7.95;;
9160;SDS011;4615;51.340;8.288;2024-01-10T01:57:57;11.33;;;8.37;;
9160;SDS011;4615;51.340;8.288;2024-01-10T02:00:23;11.23;;;7.97;;
9160;SDS011;4615;51.340;8.288;2024-01-10T02:02:50;10.13;;;7.80;;
9160;SDS011;4615;51.340;8.288;2024-01-10T02:05:16;11.07;;;8.00;;
9160;SDS011;4615;51.340;8.288;2024-01-10T02:07:43;11.40;;;7.90;;
9160;SDS011;4615;51.340;8.288;2024-01-10T02:10:09;9.93;;;7.43;;
9160;SDS011;4615;51.340;8.288;2024-01-10T02:12:35;9.15;;;7.00;;
9160;SDS011;4615;51.340;8.288;2024-01-10T02:15:04;11.67;;;7.70;;
9160;SDS011;4615;51.340;8.288;2024-01-10T02:17:30;9.52;;;7.43;;
9160;SDS011;4615;51.340;8.288;2024-01-10T02:20:07;10.70;;;7.25;;
9160;SDS011;4615;51.340;8.288;2024-01-10T02:22:33;12.52;;;7.82;;
9160;SDS011;4615;51.340;8.288;2024-01-10T02:25:01;9.35;;;7.07;;
9160;SDS011;4615;51.340;8.288;2024-01-10T02:27:28;9.88;;;7.07;;
9160;SDS011;4615;51.340;8.288;2024-01-10T02:29:54;9.53;;;6.03;;
9160;SDS011;4615;51.340;8.288;2024-01-10T02:32:21;9.68;;;6.95;;
9160;SDS011;4615;51.340;8.288;2024-01-10T02:34:48;7.28;;;5.20;;
9160;SDS011;4615;51.340;8.288;2024-01-10T02:37:15;7.53;;;5.30;;
9160;SDS011;4615;51.340;8.288;2024-01-10T02:39:41;7.53;;;5.85;;
9160;SDS011;4615;51.340;8.288;2024-01-10T02:42:09;10.20;;;6.70;;
9160;SDS011;4615;51.340;8.288;2024-01-10T02:44:35;10.70;;;7.10;;
9160;SDS011;4615;51.340;8.288;2024-01-10T02:47:01;10.88;;;7.95;;
9160;SDS011;4615;51.340;8.288;2024-01-10T02:49:28;11.98;;;8.07;;
9160;SDS011;4615;51.340;8.288;2024-01-10T02:51:54;8.40;;;6.50;;
9160;SDS011;4615;51.340;8.288;2024-01-10T02:54:20;7.93;;;6.43;;
9160;SDS011;4615;51.340;8.288;2024-01-10T02:56:47;9.60;;;7.13;;
9160;SDS011;4615;51.340;8.288;2024-01-10T02:59:14;11.57;;;7.80;;
9160;SDS011;4615;51.340;8.288;2024-01-10T03:01:41;10.68;;;7.68;;
9160;SDS011;4615;51.340;8.288;2024-01-10T03:04:07;15.35;;;9.30;;
9160;SDS011;4615;51.340;8.288;2024-01-10T03:06:34;15.10;;;9.98;;
9160;SDS011;4615;51.340;8.288;2024-01-10T03:09:00;15.18;;;10.27;;
9160;SDS011;4615;51.340;8.288;2024-01-10T03:11:27;13.40;;;8.73;;
9160;SDS011;4615;51.340;8.288;2024-01-10T03:14:00;16.27;;;9.60;;
9160;SDS011;4615;51.340;8.288;2024-01-10T03:16:28;13.38;;;7.95;;
9160;SDS011;4615;51.340;8.288;2024-01-10T03:18:54;8.95;;;6.57;;
9160;SDS011;4615;51.340;8.288;2024-01-10T03:21:20;11.55;;;7.18;;
9160;SDS011;4615;51.340;8.288;2024-01-10T03:23:51;11.35;;;7.40;;
9160;SDS011;4615;51.340;8.288;2024-01-10T03:26:17;15.10;;;8.25;;
9160;SDS011;4615;51.340;8.288;2024-01-10T03:28:43;14.02;;;9.05;;
9160;SDS011;4615;51.340;8.288;2024-01-10T03:31:10;12.88;;;9.15;;
9160;SDS011;4615;51.340;8.288;2024-01-10T03:33:38;14.35;;;9.52;;
9160;SDS011;4615;51.340;8.288;2024-01-10T03:36:06;14.65;;;9.10;;
9160;SDS011;4615;51.340;8.288;2024-01-10T03:38:32;14.60;;;8.98;;
9160;SDS011;4615;51.340;8.288;2024-01-10T03:40:59;14.05;;;9.00;;
9160;SDS011;4615;51.340;8.288;2024-01-10T03:43:25;17.50;;;9.50;;
9160;SDS011;4615;51.340;8.288;2024-01-10T03:45:51;12.48;;;8.93;;
9160;SDS011;4615;51.340;8.288;2024-01-10T03:48:18;14.20;;;9.50;;
9160;SDS011;4615;51.340;8.288;2024-01-10T03:50:46;13.52;;;9.30;;
9160;SDS011;4615;51.340;8.288;2024-01-10T03:53:12;13.00;;;9.17;;
9160;SDS011;4615;51.340;8.288;2024-01-10T03:55:39;14.00;;;9.00;;
9160;SDS011;4615;51.340;8.288;2024-01-10T03:58:06;14.30;;;9.32;;
9160;SDS011;4615;51.340;8.288;2024-01-10T04:00:32;13.23;;;8.90;;
9160;SDS011;4615;51.340;8.288;2024-01-10T04:02:59;12.40;;;8.63;;
9160;SDS011;4615;51.340;8.288;2024-01-10T04:05:25;13.02;;;8.55;;
9160;SDS011;4615;51.340;8.288;2024-01-10T04:07:53;11.87;;;8.63;;
9160;SDS011;4615;51.340;8.288;2024-01-10T04:10:22;14.82;;;9.35;;
9160;SDS011;4615;51.340;8.288;2024-01-10T04:12:48;14.80;;;9.52;;
9160;SDS011;4615;51.340;8.288;2024-01-10T04:15:15;13.25;;;8.80;;
9160;SDS011;4615;51.340;8.288;2024-01-10T04:17:42;13.18;;;8.93;;
9160;SDS011;4615;51.340;8.288;2024-01-10T04:20:09;14.88;;;9.00;;
9160;SDS011;4615;51.340;8.288;2024-01-10T04:22:35;12.15;;;8.32;;
9160;SDS011;4615;51.340;8.288;2024-01-10T04:25:04;13.93;;;8.70;;
9160;SDS011;4615;51.340;8.288;2024-01-10T04:27:31;11.68;;;7.97;;
9160;SDS011;4615;51.340;8.288;2024-01-10T04:29:57;10.52;;;7.32;;
9160;SDS011;4615;51.340;8.288;2024-01-10T04:32:24;11.63;;;7.80;;
9160;SDS011;4615;51.340;8.288;2024-01-10T04:34:50;10.48;;;7.20;;
9160;SDS011;4615;51.340;8.288;2024-01-10T04:37:17;10.45;;;7.65;;
9160;SDS011;4615;51.340;8.288;2024-01-10T04:39:44;10.40;;;7.95;;
9160;SDS011;4615;51.340;8.288;2024-01-10T04:42:11;8.95;;;7.20;;
9160;SDS011;4615;51.340;8.288;2024-01-10T04:44:38;10.88;;;8.05;;
9160;SDS011;4615;51.340;8.288;2024-01-10T04:47:05;10.15;;;7.93;;
9160;SDS011;4615;51.340;8.288;2024-01-10T04:49:31;12.77;;;9.43;;
9160;SDS011;4615;51.340;8.288;2024-01-10T04:51:58;12.23;;;8.93;;
9160;SDS011;4615;51.340;8.288;2024-01-10T04:54:24;12.02;;;9.02;;
9160;SDS011;4615;51.340;8.288;2024-01-10T04:56:51;9.75;;;7.68;;
9160;SDS011;4615;51.340;8.288;2024-01-10T04:59:18;11.32;;;7.90;;
9160;SDS011;4615;51.340;8.288;2024-01-10T05:01:45;9.57;;;7.30;;
9160;SDS011;4615;51.340;8.288;2024-01-10T05:04:11;9.57;;;7.28;;
9160;SDS011;4615;51.340;8.288;2024-01-10T05:06:37;8.80;;;6.55;;
9160;SDS011;4615;51.340;8.288;2024-01-10T05:09:04;8.10;;;6.13;;
9160;SDS011;4615;51.340;8.288;2024-01-10T05:11:31;7.95;;;6.25;;
9160;SDS011;4615;51.340;8.288;2024-01-10T05:13:59;8.17;;;6.27;;
9160;SDS011;4615;51.340;8.288;2024-01-10T05:16:27;8.23;;;6.43;;
9160;SDS011;4615;51.340;8.288;2024-01-10T05:18:54;8.07;;;6.40;;
9160;SDS011;4615;51.340;8.288;2024-01-10T05:21:20;8.05;;;6.15;;
9160;SDS011;4615;51.340;8.288;2024-01-10T05:23:46;8.80;;;6.80;;
9160;SDS011;4615;51.340;8.288;2024-01-10T05:26:14;8.70;;;6.60;;
9160;SDS011;4615;51.340;8.288;2024-01-10T05:28:39;9.80;;;6.87;;
9160;SDS011;4615;51.340;8.288;2024-01-10T05:31:05;9.70;;;6.25;;
9160;SDS011;4615;51.340;8.288;2024-01-10T05:33:33;8.95;;;6.30;;
9160;SDS011;4615;51.340;8.288;2024-01-10T05:36:00;7.88;;;6.10;;
9160;SDS011;4615;51.340;8.288;2024-01-10T05:38:26;7.60;;;6.18;;
9160;SDS011;4615;51.340;8.288;2024-01-10T05:40:52;7.88;;;5.90;;
9160;SDS011;4615;51.340;8.288;2024-01-10T05:43:19;8.73;;;6.30;;
9160;SDS011;4615;51.340;8.288;2024-01-10T05:45:45;11.50;;;7.45;;
9160;SDS011;4615;51.340;8.288;2024-01-10T05:48:11;12.23;;;9.03;;
9160;SDS011;4615;51.340;8.288;2024-01-10T05:50:39;13.23;;;9.05;;
9160;SDS011;4615;51.340;8.288;2024-01-10T05:53:05;9.80;;;7.63;;
9160;SDS011;4615;51.340;8.288;2024-01-10T05:55:33;10.10;;;7.40;;
9160;SDS011;4615;51.340;8.288;2024-01-10T05:58:00;10.83;;;8.13;;
9160;SDS011;4615;51.340;8.288;2024-01-10T06:00:27;9.95;;;7.43;;
9160;SDS011;4615;51.340;8.288;2024-01-10T06:02:53;10.07;;;7.75;;
9160;SDS011;4615;51.340;8.288;2024-01-10T06:05:19;10.82;;;8.55;;
9160;SDS011;4615;51.340;8.288;2024-01-10T06:07:48;9.50;;;8.25;;
9160;SDS011;4615;51.340;8.288;2024-01-10T06:10:14;9.73;;;7.25;;
9160;SDS011;4615;51.340;8.288;2024-01-10T06:12:41;9.48;;;7.50;;
9160;SDS011;4615;51.340;8.288;2024-01-10T06:15:07;10.70;;;7.40;;
9160;SDS011;4615;51.340;8.288;2024-01-10T06:17:35;9.70;;;7.70;;
9160;SDS011;4615;51.340;8.288;2024-01-10T06:20:01;15.50;;;11.15;;
9160;SDS011;4615;51.340;8.288;2024-01-10T06:22:28;15.13;;;11.35;;
9160;SDS011;4615;51.340;8.288;2024-01-10T06:24:56;14.55;;;11.07;;
9160;SDS011;4615;51.340;8.288;2024-01-10T06:27:22;13.40;;;9.52;;
9160;SDS011;4615;51.340;8.288;2024-01-10T06:29:49;10.93;;;8.02;;
9160;SDS011;4615;51.340;8.288;2024-01-10T06:32:15;12.07;;;9.48;;
9160;SDS011;4615;51.340;8.288;2024-01-10T06:34:42;11.52;;;9.07;;
9160;SDS011;4615;51.340;8.288;2024-01-10T06:37:08;12.43;;;9.97;;
9160;SDS011;4615;51.340;8.288;2024-01-10T06:39:34;13.15;;;8.93;;
9160;SDS011;4615;51.340;8.288;2024-01-10T06:42:02;11.98;;;9.10;;
9160;SDS011;4615;51.340;8.288;2024-01-10T06:44:31;12.30;;;9.15;;
9160;SDS011;4615;51.340;8.288;2024-01-10T06:46:58;11.65;;;9.10;;
9160;SDS011;4615;51.340;8.288;2024-01-10T06:49:25;9.93;;;7.30;;
9160;SDS011;4615;51.340;8.288;2024-01-10T06:51:52;10.45;;;8.05;;
9160;SDS011;4615;51.340;8.288;2024-01-10T06:54:18;14.07;;;9.63;;
9160;SDS011;4615;51.340;8.288;2024-01-10T06:56:45;13.20;;;9.43;;
9160;SDS011;4615;51.340;8.288;2024-01-10T06:59:12;17.33;;;11.77;;
9160;SDS011;4615;51.340;8.288;2024-01-10T07:01:39;23.92;;;16.58;;
9160;SDS011;4615;51.340;8.288;2024-01-10T07:04:05;21.45;;;14.63;;
9160;SDS011;4615;51.340;8.288;2024-01-10T07:06:32;19.35;;;13.43;;
9160;SDS011;4615;51.340;8.288;2024-01-10T07:08:58;18.93;;;13.17;;
9160;SDS011;4615;51.340;8.288;2024-01-10T07:11:25;18.17;;;13.30;;
9160;SDS011;4615;51.340;8.288;2024-01-10T07:13:53;16.95;;;11.90;;
9160;SDS011;4615;51.340;8.288;2024-01-10T07:16:21;15.32;;;11.32;;
9160;SDS011;4615;51.340;8.288;2024-01-10T07:18:47;15.73;;;11.27;;
9160;SDS011;4615;51.340;8.288;2024-01-10T07:21:16;14.23;;;11.25;;
9160;SDS011;4615;51.340;8.288;2024-01-10T07:23:42;15.45;;;10.85;;
9160;SDS011;4615;51.340;8.288;2024-01-10T07:26:09;14.90;;;11.15;;
9160;SDS011;4615;51.340;8.288;2024-01-10T07:28:35;16.88;;;12.20;;
9160;SDS011;4615;51.340;8.288;2024-01-10T07:31:03;16.33;;;11.90;;
9160;SDS011;4615;51.340;8.288;2024-01-10T07:33:31;17.13;;;11.65;;
9160;SDS011;4615;51.340;8.288;2024-01-10T07:35:58;14.30;;;11.35;;
9160;SDS011;4615;51.340;8.288;2024-01-10T07:38:24;15.67;;;12.20;;
9160;SDS011;4615;51.340;8.288;2024-01-10T07:40:50;14.73;;;11.75;;
9160;SDS011;4615;51.340;8.288;2024-01-10T07:43:17;16.35;;;11.43;;
9160;SDS011;4615;51.340;8.288;2024-01-10T07:45:43;16.33;;;11.35;;
9160;SDS011;4615;51.340;8.288;2024-01-10T07:48:09;14.77;;;11.13;;
9160;SDS011;4615;51.340;8.288;2024-01-10T07:50:37;15.80;;;10.90;;
9160;SDS011;4615;51.340;8.288;2024-01-10T07:53:03;13.68;;;10.35;;
9160;SDS011;4615;51.340;8.288;2024-01-10T07:55:30;14.20;;;10.27;;
9160;SDS011;4615;51.340;8.288;2024-01-10T07:57:56;14.20;;;10.73;;
9160;SDS011;4615;51.340;8.288;2024-01-10T08:00:23;16.08;;;11.40;;
9160;SDS011;4615;51.340;8.288;2024-01-10T08:02:49;16.20;;;11.18;;
9160;SDS011;4615;51.340;8.288;2024-01-10T08:05:15;17.55;;;11.27;;
9160;SDS011;4615;51.340;8.288;2024-01-10T08:07:43;14.63;;;11.10;;
9160;SDS011;4615;51.340;8.288;2024-01-10T08:10:10;14.30;;;10.85;;
9160;SDS011;4615;51.340;8.288;2024-01-10T08:12:36;15.18;;;11.23;;
9160;SDS011;4615;51.340;8.288;2024-01-10T08:15:04;16.37;;;11.80;;
9160;SDS011;4615;51.340;8.288;2024-01-10T08:17:31;16.42;;;11.52;;
9160;SDS011;4615;51.340;8.288;2024-01-10T08:19:57;16.38;;;11.30;;
9160;SDS011;4615;51.340;8.288;2024-01-10T08:22:25;14.53;;;11.30;;
9160;SDS011;4615;51.340;8.288;2024-01-10T08:24:56;14.75;;;11.57;;
9160;SDS011;4615;51.340;8.288;2024-01-10T08:27:23;15.20;;;11.80;;
9160;SDS011;4615;51.340;8.288;2024-01-10T08:29:49;15.97;;;11.97;;
9160;SDS011;4615;51.340;8.288;2024-01-10T08:32:16;15.85;;;11.55;;
9160;SDS011;4615;51.340;8.288;2024-01-10T08:34:43;14.95;;;11.48;;
9160;SDS011;4615;51.340;8.288;2024-01-10T08:37:10;15.20;;;11.67;;
9160;SDS011;4615;51.340;8.288;2024-01-10T08:39:36;15.18;;;11.15;;
9160;SDS011;4615;51.340;8.288;2024-01-10T08:42:04;16.48;;;11.90;;
9160;SDS011;4615;51.340;8.288;2024-01-10T08:44:30;17.27;;;12.57;;
9160;SDS011;4615;51.340;8.288;2024-01-10T08:46:57;17.17;;;12.45;;
9160;SDS011;4615;51.340;8.288;2024-01-10T08:49:23;16.45;;;12.52;;
9160;SDS011;4615;51.340;8.288;2024-01-10T08:51:50;17.13;;;12.45;;
9160;SDS011;4615;51.340;8.288;2024-01-10T08:54:18;18.75;;;12.63;;
9160;SDS011;4615;51.340;8.288;2024-01-10T08:56:45;17.92;;;12.90;;
9160;SDS011;4615;51.340;8.288;2024-01-10T08:59:13;18.02;;;13.52;;
9160;SDS011;4615;51.340;8.288;2024-01-10T09:01:39;18.83;;;12.93;;
9160;SDS011;4615;51.340;8.288;2024-01-10T09:04:06;17.27;;;12.73;;
9160;SDS011;4615;51.340;8.288;2024-01-10T09:06:32;19.48;;;14.40;;
9160;SDS011;4615;51.340;8.288;2024-01-10T09:09:00;19.98;;;14.40;;
9160;SDS011;4615;51.340;8.288;2024-01-10T09:11:27;24.25;;;17.15;;
9160;SDS011;4615;51.340;8.288;2024-01-10T09:13:54;20.53;;;14.67;;
9160;SDS011;4615;51.340;8.288;2024-01-10T09:16:21;21.13;;;14.85;;
9160;SDS011;4615;51.340;8.288;2024-01-10T09:18:48;18.10;;;13.02;;
9160;SDS011;4615;51.340;8.288;2024-01-10T09:21:18;17.30;;;13.10;;
9160;SDS011;4615;51.340;8.288;2024-01-10T09:23:45;16.85;;;12.65;;
9160;SDS011;4615;51.340;8.288;2024-01-10T09:26:12;16.13;;;12.50;;
9160;SDS011;4615;51.340;8.288;2024-01-10T09:28:39;15.73;;;11.55;;
9160;SDS011;4615;51.340;8.288;2024-01-10T09:31:05;15.10;;;10.95;;
9160;SDS011;4615;51.340;8.288;2024-01-10T09:33:34;14.95;;;11.23;;
9160;SDS011;4615;51.340;8.288;2024-01-10T09:36:00;14.57;;;10.38;;
9160;SDS011;4615;51.340;8.288;2024-01-10T09:38:27;13.02;;;10.40;;
9160;SDS011;4615;51.340;8.288;2024-01-10T09:40:53;15.15;;;10.68;;
9160;SDS011;4615;51.340;8.288;2024-01-10T09:43:26;13.27;;;9.88;;
9160;SDS011;4615;51.340;8.288;2024-01-10T09:45:52;12.63;;;10.35;;
9160;SDS011;4615;51.340;8.288;2024-01-10T09:48:20;12.43;;;9.73;;
9160;SDS011;4615;51.340;8.288;2024-01-10T09:50:47;12.98;;;9.90;;
9160;SDS011;4615;51.340;8.288;2024-01-10T09:53:18;13.20;;;9.35;;
9160;SDS011;4615;51.340;8.288;2024-01-10T09:55:46;11.63;;;8.63;;
9160;SDS011;4615;51.340;8.288;2024-01-10T09:58:12;12.00;;;9.10;;
9160;SDS011;4615;51.340;8.288;2024-01-10T10:00:39;10.57;;;8.65;;
9160;SDS011;4615;51.340;8.288;2024-01-10T10:03:06;9.95;;;7.82;;
9160;SDS011;4615;51.340;8.288;2024-01-10T10:05:33;10.43;;;7.60;;
9160;SDS011;4615;51.340;8.288;2024-01-10T10:08:02;10.23;;;7.50;;
9160;SDS011;4615;51.340;8.288;2024-01-10T10:10:28;12.98;;;8.95;;
9160;SDS011;4615;51.340;8.288;2024-01-10T10:12:55;9.55;;;7.50;;
9160;SDS011;4615;51.340;8.288;2024-01-10T10:15:22;8.32;;;6.75;;
9160;SDS011;4615;51.340;8.288;2024-01-10T10:17:49;8.05;;;6.05;;
9160;SDS011;4615;51.340;8.288;2024-01-10T10:20:19;7.90;;;5.95;;
9160;SDS011;4615;51.340;8.288;2024-01-10T10:25:32;7.70;;;5.75;;
9160;SDS011;4615;51.340;8.288;2024-01-10T10:27:58;8.35;;;5.78;;
9160;SDS011;4615;51.340;8.288;2024-01-10T10:30:25;7.60;;;5.65;;
9160;SDS011;4615;51.340;8.288;2024-01-10T10:32:55;6.65;;;5.30;;
9160;SDS011;4615;51.340;8.288;2024-01-10T10:35:21;8.27;;;5.83;;
9160;SDS011;4615;51.340;8.288;2024-01-10T10:37:48;8.52;;;6.05;;
9160;SDS011;4615;51.340;8.288;2024-01-10T10:40:14;8.93;;;5.73;;
9160;SDS011;4615;51.340;8.288;2024-01-10T10:42:43;8.05;;;5.80;;
9160;SDS011;4615;51.340;8.288;2024-01-10T10:45:10;7.72;;;5.80;;
9160;SDS011;4615;51.340;8.288;2024-01-10T10:47:38;7.07;;;5.70;;
9160;SDS011;4615;51.340;8.288;2024-01-10T10:50:08;8.20;;;6.30;;
9160;SDS011;4615;51.340;8.288;2024-01-10T10:52:38;7.03;;;5.50;;
9160;SDS011;4615;51.340;8.288;2024-01-10T10:55:06;7.97;;;5.70;;
9160;SDS011;4615;51.340;8.288;2024-01-10T10:57:33;6.93;;;5.50;;
9160;SDS011;4615;51.340;8.288;2024-01-10T11:00:01;8.60;;;6.43;;
9160;SDS011;4615;51.340;8.288;2024-01-10T11:02:27;7.90;;;6.40;;
9160;SDS011;4615;51.340;8.288;2024-01-10T11:04:54;12.67;;;7.37;;
9160;SDS011;4615;51.340;8.288;2024-01-10T11:07:20;10.48;;;7.45;;
9160;SDS011;4615;51.340;8.288;2024-01-10T11:09:47;10.02;;;7.13;;
9160;SDS011;4615;51.340;8.288;2024-01-10T11:12:18;9.32;;;6.90;;
9160;SDS011;4615;51.340;8.288;2024-01-10T11:14:52;7.77;;;6.00;;
9160;SDS011;4615;51.340;8.288;2024-01-10T11:17:29;6.97;;;5.93;;
9160;SDS011;4615;51.340;8.288;2024-01-10T11:20:13;7.35;;;5.68;;
9160;SDS011;4615;51.340;8.288;2024-01-10T11:22:48;7.43;;;5.68;;
9160;SDS011;4615;51.340;8.288;2024-01-10T11:25:19;9.85;;;5.93;;
9160;SDS011;4615;51.340;8.288;2024-01-10T11:27:45;7.22;;;5.28;;
9160;SDS011;4615;51.340;8.288;2024-01-10T11:30:13;8.27;;;5.55;;
9160;SDS011;4615;51.340;8.288;2024-01-10T11:32:40;6.82;;;5.15;;
9160;SDS011;4615;51.340;8.288;2024-01-10T11:35:11;8.70;;;5.47;;
9160;SDS011;4615;51.340;8.288;2024-01-10T11:37:42;7.65;;;5.40;;
9160;SDS011;4615;51.340;8.288;2024-01-10T11:40:09;8.20;;;5.00;;
9160;SDS011;4615;51.340;8.288;2024-01-10T11:42:40;7.72;;;5.65;;
9160;SDS011;4615;51.340;8.288;2024-01-10T11:45:07;10.90;;;5.53;;
9160;SDS011;4615;51.340;8.288;2024-01-10T11:47:34;9.38;;;6.28;;
9160;SDS011;4615;51.340;8.288;2024-01-10T11:50:02;9.35;;;5.90;;
9160;SDS011;4615;51.340;8.288;2024-01-10T11:52:32;10.43;;;6.07;;
9160;SDS011;4615;51.340;8.288;2024-01-10T11:54:59;7.55;;;5.57;;
9160;SDS011;4615;51.340;8.288;2024-01-10T11:57:27;8.38;;;5.40;;
9160;SDS011;4615;51.340;8.288;2024-01-10T11:59:54;8.15;;;6.10;;
9160;SDS011;4615;51.340;8.288;2024-01-10T12:02:21;8.47;;;5.97;;
9160;SDS011;4615;51.340;8.288;2024-01-10T12:04:48;9.90;;;6.47;;
9160;SDS011;4615;51.340;8.288;2024-01-10T12:07:17;7.10;;;5.60;;
9160;SDS011;4615;51.340;8.288;2024-01-10T12:09:44;8.10;;;5.90;;
9160;SDS011;4615;51.340;8.288;2024-01-10T12:12:11;8.45;;;6.35;;
9160;SDS011;4615;51.340;8.288;2024-01-10T12:14:38;7.47;;;6.07;;
9160;SDS011;4615;51.340;8.288;2024-01-10T12:17:05;9.45;;;6.70;;
9160;SDS011;4615;51.340;8.288;2024-01-10T12:19:35;9.93;;;6.43;;
9160;SDS011;4615;51.340;8.288;2024-01-10T12:22:02;9.35;;;6.82;;
9160;SDS011;4615;51.340;8.288;2024-01-10T12:24:30;7.85;;;6.80;;
9160;SDS011;4615;51.340;8.288;2024-01-10T12:26:56;8.20;;;6.57;;
9160;SDS011;4615;51.340;8.288;2024-01-10T12:29:23;10.02;;;7.00;;
9160;SDS011;4615;51.340;8.288;2024-01-10T12:31:50;10.83;;;7.33;;
9160;SDS011;4615;51.340;8.288;2024-01-10T12:34:16;7.82;;;6.60;;
9160;SDS011;4615;51.340;8.288;2024-01-10T12:36:43;8.07;;;6.85;;
9160;SDS011;4615;51.340;8.288;2024-01-10T12:39:09;8.27;;;6.78;;
9160;SDS011;4615;51.340;8.288;2024-01-10T12:41:37;9.45;;;7.05;;
9160;SDS011;4615;51.340;8.288;2024-01-10T12:44:04;9.82;;;7.07;;
9160;SDS011;4615;51.340;8.288;2024-01-10T12:46:31;8.95;;;7.15;;
9160;SDS011;4615;51.340;8.288;2024-01-10T12:48:58;10.38;;;7.38;;
9160;SDS011;4615;51.340;8.288;2024-01-10T12:51:26;8.23;;;6.60;;
9160;SDS011;4615;51.340;8.288;2024-01-10T12:53:53;8.40;;;6.82;;
9160;SDS011;4615;51.340;8.288;2024-01-10T12:56:19;10.13;;;7.28;;
9160;SDS011;4615;51.340;8.288;2024-01-10T12:58:47;9.23;;;6.90;;
9160;SDS011;4615;51.340;8.288;2024-01-10T13:01:13;9.57;;;7.72;;
9160;SDS011;4615;51.340;8.288;2024-01-10T13:03:40;9.63;;;7.15;;
9160;SDS011;4615;51.340;8.288;2024-01-10T13:06:07;10.20;;;7.20;;
9160;SDS011;4615;51.340;8.288;2024-01-10T13:08:34;9.88;;;7.47;;
9160;SDS011;4615;51.340;8.288;2024-01-10T13:11:01;10.25;;;7.72;;
9160;SDS011;4615;51.340;8.288;2024-01-10T13:13:29;14.48;;;7.88;;
9160;SDS011;4615;51.340;8.288;2024-01-10T13:15:57;8.80;;;7.13;;
9160;SDS011;4615;51.340;8.288;2024-01-10T13:18:23;9.70;;;7.35;;
9160;SDS011;4615;51.340;8.288;2024-01-10T13:20:49;9.77;;;7.85;;
9160;SDS011;4615;51.340;8.288;2024-01-10T13:23:17;9.30;;;8.00;;
9160;SDS011;4615;51.340;8.288;2024-01-10T13:25:43;9.85;;;7.68;;
9160;SDS011;4615;51.340;8.288;2024-01-10T13:28:10;9.68;;;7.50;;
9160;SDS011;4615;51.340;8.288;2024-01-10T13:30:37;10.20;;;8.18;;
9160;SDS011;4615;51.340;8.288;2024-01-10T13:33:07;9.35;;;7.82;;
9160;SDS011;4615;51.340;8.288;2024-01-10T13:35:34;11.07;;;7.70;;
9160;SDS011;4615;51.340;8.288;2024-01-10T13:38:00;9.02;;;7.50;;
9160;SDS011;4615;51.340;8.288;2024-01-10T13:40:27;9.30;;;7.75;;
9160;SDS011;4615;51.340;8.288;2024-01-10T13:42:53;15.57;;;10.63;;
9160;SDS011;4615;51.340;8.288;2024-01-10T13:45:19;23.60;;;16.40;;
9160;SDS011;4615;51.340;8.288;2024-01-10T13:47:46;39.08;;;25.23;;
9160;SDS011;4615;51.340;8.288;2024-01-10T13:50:15;23.40;;;15.23;;
9160;SDS011;4615;51.340;8.288;2024-01-10T13:52:41;26.83;;;17.33;;
9160;SDS011;4615;51.340;8.288;2024-01-10T13:55:08;28.17;;;19.25;;
9160;SDS011;4615;51.340;8.288;2024-01-10T13:57:35;11.93;;;9.18;;
9160;SDS011;4615;51.340;8.288;2024-01-10T14:00:02;12.52;;;9.80;;
9160;SDS011;4615;51.340;8.288;2024-01-10T14:02:32;11.95;;;9.90;;
9160;SDS011;4615;51.340;8.288;2024-01-10T14:04:58;11.95;;;9.50;;
9160;SDS011;4615;51.340;8.288;2024-01-10T14:07:26;11.82;;;9.30;;
9160;SDS011;4615;51.340;8.288;2024-01-10T14:09:52;13.95;;;9.13;;
9160;SDS011;4615;51.340;8.288;2024-01-10T14:12:20;13.90;;;10.20;;
9160;SDS011;4615;51.340;8.288;2024-01-10T14:14:47;13.95;;;10.10;;
9160;SDS011;4615;51.340;8.288;2024-01-10T14:17:13;10.98;;;8.95;;
9160;SDS011;4615;51.340;8.288;2024-01-10T14:19:40;11.93;;;9.27;;
9160;SDS011;4615;51.340;8.288;2024-01-10T14:22:06;12.63;;;9.85;;
9160;SDS011;4615;51.340;8.288;2024-01-10T14:24:35;11.25;;;9.45;;
9160;SDS011;4615;51.340;8.288;2024-01-10T14:27:01;11.07;;;9.27;;
9160;SDS011;4615;51.340;8.288;2024-01-10T14:29:27;11.97;;;9.40;;
9160;SDS011;4615;51.340;8.288;2024-01-10T14:31:54;13.45;;;9.70;;
9160;SDS011;4615;51.340;8.288;2024-01-10T14:34:20;13.55;;;10.88;;
9160;SDS011;4615;51.340;8.288;2024-01-10T14:36:47;14.65;;;11.52;;
9160;SDS011;4615;51.340;8.288;2024-01-10T14:39:13;13.13;;;9.77;;
9160;SDS011;4615;51.340;8.288;2024-01-10T14:41:41;13.35;;;10.27;;
9160;SDS011;4615;51.340;8.288;2024-01-10T14:44:08;13.23;;;9.77;;
9160;SDS011;4615;51.340;8.288;2024-01-10T14:46:34;19.60;;;10.25;;
9160;SDS011;4615;51.340;8.288;2024-01-10T14:49:02;13.93;;;10.13;;
9160;SDS011;4615;51.340;8.288;2024-01-10T14:51:29;19.70;;;12.82;;
9160;SDS011;4615;51.340;8.288;2024-01-10T14:53:55;13.00;;;9.65;;
9160;SDS011;4615;51.340;8.288;2024-01-10T14:56:21;10.98;;;8.80;;
9160;SDS011;4615;51.340;8.288;2024-01-10T14:58:50;13.07;;;9.38;;
9160;SDS011;4615;51.340;8.288;2024-01-10T15:01:16;11.80;;;8.95;;
9160;SDS011;4615;51.340;8.288;2024-01-10T15:03:45;12.02;;;10.02;;
9160;SDS011;4615;51.340;8.288;2024-01-10T15:06:11;12.27;;;9.93;;